Time;durP1;ratioP1;P1;durP2;ratioP2;P2;SDS_P1;SDS_P2;PMS_P1;PMS_P2;Temp;Humidity;BMP_temperature;BMP_pressure;BME280_temperature;BME280_humidity;BME280_pressure;Samples;Min_cycle;Max_cycle;Signal;HPM_P1;HPM_P2
2021/04/21 00:02:19;;;;;;;52.70;28.85;;;;;;;9.43;88.58;101077.16;5065849;28;20032;-77
2021/04/21 00:04:46;;;;;;;52.15;28.38;;;;;;;9.43;88.52;101079.81;5057826;28;20037;-77
2021/04/21 00:07:15;;;;;;;50.42;26.77;;;;;;;9.42;88.73;101075.41;5059802;28;20123;-77
2021/04/21 00:09:42;;;;;;;53.80;27.98;;;;;;;9.41;88.86;101081.72;5066441;28;20037;-77
2021/04/21 00:12:08;;;;;;;54.67;27.40;;;;;;;9.40;88.87;101074.63;5064879;28;20040;-77
2021/04/21 00:14:34;;;;;;;49.67;28.27;;;;;;;9.37;89.31;101074.81;5067538;28;20028;-77
2021/04/21 00:17:02;;;;;;;53.20;28.73;;;;;;;9.32;89.41;101074.16;5062429;28;20028;-77
2021/04/21 00:19:29;;;;;;;51.50;29.20;;;;;;;9.32;89.44;101066.13;5063442;28;20106;-77
2021/04/21 00:21:58;;;;;;;60.30;32.47;;;;;;;9.31;89.49;101076.00;5059157;28;20043;-77
2021/04/21 00:24:24;;;;;;;61.55;30.83;;;;;;;9.30;89.56;101070.72;5069029;28;20475;-77
2021/04/21 00:26:51;;;;;;;60.40;32.53;;;;;;;9.29;89.54;101071.66;5070009;28;20502;-77
2021/04/21 00:29:18;;;;;;;59.80;35.13;;;;;;;9.27;89.51;101068.19;5064296;28;20024;-77
2021/04/21 00:31:45;;;;;;;62.60;34.75;;;;;;;9.25;89.33;101064.75;5068432;28;20047;-77
2021/04/21 00:34:12;;;;;;;69.80;35.20;;;;;;;9.24;89.27;101065.69;5051290;28;20066;-77
2021/04/21 00:36:41;;;;;;;58.33;32.47;;;;;;;9.20;89.21;101069.44;5086334;28;20692;-77
2021/04/21 00:39:09;;;;;;;55.55;29.25;;;;;;;9.00;89.65;101064.31;5071843;28;20055;-77
2021/04/21 00:41:53;;;;;;;51.97;28.23;;;;;;;8.87;90.27;101064.94;5064428;28;20524;-77
2021/04/21 00:44:40;;;;;;;51.25;27.83;;;;;;;8.76;90.74;101071.78;5069667;28;20032;-77
2021/04/21 00:47:08;;;;;;;60.78;31.65;;;;;;;8.69;91.28;101060.53;5052539;28;20040;-77
2021/04/21 00:50:00;;;;;;;59.10;29.02;;;;;;;8.70;91.48;101062.25;5071204;28;20033;-77
2021/04/21 00:53:02;;;;;;;65.35;32.55;;;;;;;8.74;91.58;101062.97;5071534;28;20033;-76
2021/04/21 00:55:39;;;;;;;62.95;34.65;;;;;;;8.77;91.30;101054.75;5053814;28;20460;-78
2021/04/21 00:58:10;;;;;;;66.93;36.38;;;;;;;8.77;91.34;101052.97;5054874;28;20493;-77
2021/04/21 01:00:47;;;;;;;67.35;36.60;;;;;;;8.79;91.41;101068.94;5060825;28;20127;-76
2021/04/21 01:03:22;;;;;;;67.72;35.80;;;;;;;8.75;91.83;101065.56;5068179;28;20519;-77
2021/04/21 01:06:18;;;;;;;70.80;36.72;;;;;;;8.66;92.57;101058.00;5057935;28;20032;-77
2021/04/21 01:08:50;;;;;;;71.30;37.30;;;;;;;8.66;92.79;101052.66;5057137;28;20056;-76
2021/04/21 01:11:22;;;;;;;73.53;38.53;;;;;;;8.63;93.04;101050.16;5062092;28;20043;-76
2021/04/21 01:13:52;;;;;;;73.95;37.08;;;;;;;8.65;93.32;101056.25;5078208;28;20392;-76
2021/04/21 01:16:23;;;;;;;64.93;36.88;;;;;;;8.67;93.37;101054.38;5056808;28;20025;-77
2021/04/21 01:18:51;;;;;;;67.75;37.83;;;;;;;8.70;93.41;101058.72;5066413;28;20565;-76
2021/04/21 01:21:35;;;;;;;73.88;37.97;;;;;;;8.68;93.29;101045.41;5063978;28;20030;-77
2021/04/21 01:24:07;;;;;;;68.85;37.33;;;;;;;8.66;93.25;101047.28;5071446;28;20043;-76
2021/04/21 01:26:35;;;;;;;65.68;35.22;;;;;;;8.62;93.46;101042.19;5067392;28;20035;-76
2021/04/21 01:29:02;;;;;;;66.22;35.70;;;;;;;8.59;93.39;101048.53;5069799;28;20127;-77
2021/04/21 01:31:33;;;;;;;66.65;35.08;;;;;;;8.57;93.63;101042.44;5062593;28;20029;-77
2021/04/21 01:34:02;;;;;;;66.65;37.40;;;;;;;8.59;93.58;101047.69;5047004;28;20397;-76
2021/04/21 01:36:30;;;;;;;65.57;36.63;;;;;;;8.58;93.38;101035.28;5064224;28;20032;-77
2021/04/21 01:38:59;;;;;;;73.43;38.72;;;;;;;8.57;93.39;101037.06;5066972;28;20355;-77
2021/04/21 01:41:30;;;;;;;69.38;40.08;;;;;;;8.52;93.61;101036.41;5067285;28;20036;-76
2021/04/21 01:44:08;;;;;;;73.25;39.55;;;;;;;8.53;93.51;101035.47;5051575;28;20032;-77
2021/04/21 01:46:38;;;;;;;72.55;39.88;;;;;;;8.47;93.73;101033.13;5066639;28;20041;-76
2021/04/21 01:49:35;;;;;;;70.97;38.65;;;;;;;8.43;94.05;101032.41;5070922;28;20170;-76
2021/04/21 01:52:38;;;;;;;71.15;39.15;;;;;;;8.41;94.03;101036.97;5048716;28;20037;-77
2021/04/21 01:55:15;;;;;;;68.53;38.35;;;;;;;8.39;94.12;101030.81;5061459;28;20040;-76
2021/04/21 01:57:56;;;;;;;82.60;38.20;;;;;;;8.37;93.91;101031.84;5062164;28;20091;-76
2021/04/21 02:00:41;;;;;;;67.18;37.88;;;;;;;8.37;93.86;101037.22;5064333;28;20024;-77
2021/04/21 02:03:17;;;;;;;69.65;36.72;;;;;;;8.32;93.89;101036.56;5061877;28;20060;-76
2021/04/21 02:06:24;;;;;;;68.38;36.55;;;;;;;8.29;94.20;101044.72;5066159;28;20028;-76
2021/04/21 02:09:03;;;;;;;66.97;37.13;;;;;;;8.28;94.31;101045.63;5066845;28;20066;-77
2021/04/21 02:11:33;;;;;;;69.95;37.25;;;;;;;8.25;94.57;101044.00;5067225;28;20063;-77
2021/04/21 02:14:22;;;;;;;72.00;37.38;;;;;;;8.24;94.72;101046.75;5066784;28;20024;-77
2021/04/21 02:17:01;;;;;;;69.57;37.40;;;;;;;8.20;94.87;101046.06;5041673;28;20040;-77
2021/04/21 02:19:38;;;;;;;71.30;38.08;;;;;;;8.19;95.02;101048.78;5063544;28;20052;-77
2021/04/21 02:22:10;;;;;;;71.28;39.30;;;;;;;8.18;94.91;101057.75;5066468;28;20036;-77
2021/04/21 02:24:44;;;;;;;72.20;40.30;;;;;;;8.07;95.29;101056.47;5063715;28;20033;-76
2021/04/21 02:27:47;;;;;;;73.50;39.05;;;;;;;8.03;95.88;101056.66;5048079;28;20098;-76
2021/04/21 02:30:34;;;;;;;76.05;39.63;;;;;;;7.97;96.13;101059.66;5059094;28;20028;-76
2021/04/21 02:33:24;;;;;;;70.70;38.78;;;;;;;7.94;96.22;101060.69;5066750;28;20036;-77
2021/04/21 02:35:55;;;;;;;64.60;35.55;;;;;;;7.91;96.56;101054.59;5063560;28;20487;-76
2021/04/21 02:38:52;;;;;;;74.43;38.55;;;;;;;7.90;96.67;101052.88;5065501;28;20040;-77
2021/04/21 02:41:21;;;;;;;65.57;36.67;;;;;;;7.87;96.68;101051.22;5066944;28;20051;-76
2021/04/21 02:43:55;;;;;;;69.60;38.00;;;;;;;7.83;97.07;101052.31;5069334;28;20036;-76
2021/04/21 02:46:30;;;;;;;69.75;38.85;;;;;;;7.80;97.39;101051.56;5055307;28;20045;-77
2021/04/21 02:49:21;;;;;;;72.97;39.00;;;;;;;7.77;97.85;101052.59;5069218;28;20043;-76
2021/04/21 02:52:09;;;;;;;68.50;37.35;;;;;;;7.78;97.81;101050.78;5066302;28;20633;-76
2021/04/21 02:54:47;;;;;;;69.85;36.92;;;;;;;7.77;97.94;101055.28;5065439;28;20035;-77
2021/04/21 02:57:46;;;;;;;71.72;37.42;;;;;;;7.76;97.88;101055.34;5063996;28;20374;-77
2021/04/21 03:00:36;;;;;;;75.32;38.30;;;;;;;7.75;98.04;101051.78;5067853;28;20103;-76
2021/04/21 03:03:26;;;;;;;70.60;39.22;;;;;;;7.71;98.05;101053.72;5068098;28;20036;-76
2021/04/21 03:06:01;;;;;;;69.10;37.55;;;;;;;7.68;98.58;101053.03;5067490;28;20032;-76
2021/04/21 03:08:44;;;;;;;78.93;39.75;;;;;;;7.64;98.70;101051.44;5062205;28;20035;-76
2021/04/21 03:11:15;;;;;;;75.55;40.72;;;;;;;7.64;98.94;101051.44;5065902;28;20496;-76
2021/04/21 03:13:50;;;;;;;70.13;38.63;;;;;;;7.63;99.16;101049.72;5067635;28;20024;-76
2021/04/21 03:16:19;;;;;;;74.68;38.03;;;;;;;7.62;99.23;101047.97;5065912;28;20028;-76
2021/04/21 03:18:48;;;;;;;71.03;40.28;;;;;;;7.60;99.54;101044.50;5062465;28;20063;-76
2021/04/21 03:21:31;;;;;;;77.72;38.10;;;;;;;7.56;99.92;101050.91;5057210;28;20085;-76
2021/04/21 03:24:18;;;;;;;71.68;37.55;;;;;;;7.57;100.00;101050.88;5066835;28;20036;-76
2021/04/21 03:26:47;;;;;;;71.72;38.65;;;;;;;7.57;100.00;101050.00;5061105;28;20041;-76
2021/04/21 03:29:17;;;;;;;64.68;37.20;;;;;;;7.57;100.00;101050.00;5067643;28;20158;-76
2021/04/21 03:31:46;;;;;;;69.53;36.70;;;;;;;7.57;100.00;101050.88;5067353;28;20032;-76
2021/04/21 03:34:16;;;;;;;70.15;38.05;;;;;;;7.57;100.00;101047.31;5068828;28;20424;-76
2021/04/21 03:36:43;;;;;;;75.45;40.03;;;;;;;7.57;100.00;101044.66;5062915;28;20036;-75
2021/04/21 03:39:09;;;;;;;76.68;39.65;;;;;;;7.57;100.00;101044.66;5064188;28;20396;-76
2021/04/21 03:41:36;;;;;;;73.03;38.80;;;;;;;7.57;100.00;101041.97;5067170;28;20044;-75
2021/04/21 03:44:02;;;;;;;66.50;37.90;;;;;;;7.56;100.00;101033.09;5068939;28;20041;-76
2021/04/21 03:46:28;;;;;;;67.25;37.47;;;;;;;7.57;100.00;101039.31;5067667;28;20067;-76
2021/04/21 03:48:56;;;;;;;70.22;37.85;;;;;;;7.56;100.00;101037.56;5064491;28;20035;-76
2021/04/21 03:51:23;;;;;;;77.78;39.95;;;;;;;7.55;100.00;101034.03;5067425;28;20025;-76
2021/04/21 03:53:50;;;;;;;83.05;40.45;;;;;;;7.55;100.00;101038.50;5064720;28;20119;-76
2021/04/21 03:56:18;;;;;;;73.13;39.58;;;;;;;7.52;100.00;101036.00;5059556;28;20046;-76
2021/04/21 03:58:46;;;;;;;73.45;38.95;;;;;;;7.52;100.00;101036.84;5066767;28;20546;-77
2021/04/21 04:01:18;;;;;;;71.78;38.38;;;;;;;7.51;100.00;101035.13;5072773;28;20485;-76
2021/04/21 04:03:51;;;;;;;79.78;39.92;;;;;;;7.49;100.00;101037.00;5054024;28;20096;-76
2021/04/21 04:06:26;;;;;;;73.95;38.15;;;;;;;7.49;100.00;101041.47;5068282;28;20051;-76
2021/04/21 04:09:11;;;;;;;73.13;39.13;;;;;;;7.47;100.00;101044.19;5070057;28;20116;-76
2021/04/21 04:11:46;;;;;;;69.18;39.13;;;;;;;7.46;100.00;101044.28;5072093;28;20047;-76
2021/04/21 04:14:19;;;;;;;71.85;38.38;;;;;;;7.44;100.00;101049.69;5056664;28;20401;-76
2021/04/21 04:16:46;;;;;;;85.90;43.15;;;;;;;7.42;100.00;101043.53;5067808;28;20598;-76
2021/04/21 04:19:13;;;;;;;80.65;41.22;;;;;;;7.38;100.00;101057.13;5065646;28;20554;-76
2021/04/21 04:21:42;;;;;;;70.68;38.90;;;;;;;7.35;100.00;101050.09;5065355;28;20037;-76
2021/04/21 04:24:14;;;;;;;79.65;40.65;;;;;;;7.34;100.00;101052.88;5070320;28;20075;-76
2021/04/21 04:26:42;;;;;;;72.57;37.40;;;;;;;7.34;100.00;101063.53;5069179;28;20032;-76
2021/04/21 04:29:08;;;;;;;73.05;38.17;;;;;;;7.31;100.00;101060.06;5064095;28;20113;-76
2021/04/21 04:31:39;;;;;;;76.10;40.35;;;;;;;7.31;100.00;101062.72;5058667;28;20036;-76
2021/04/21 04:34:05;;;;;;;71.93;37.95;;;;;;;7.30;100.00;101063.66;5066707;28;20218;-75
2021/04/21 04:36:40;;;;;;;72.18;38.42;;;;;;;7.30;100.00;101060.13;5069359;28;20413;-76
2021/04/21 04:39:08;;;;;;;72.95;39.08;;;;;;;7.29;100.00;101063.72;5064286;28;20120;-76
2021/04/21 04:41:36;;;;;;;82.43;40.55;;;;;;;7.29;100.00;101067.25;5070087;28;20078;-76
2021/04/21 04:44:02;;;;;;;84.43;42.55;;;;;;;7.29;100.00;101067.25;5069630;28;20508;-76
2021/04/21 04:46:30;;;;;;;82.05;41.72;;;;;;;7.28;100.00;101068.19;5068384;28;20043;-76
2021/04/21 04:49:03;;;;;;;84.55;41.72;;;;;;;7.29;100.00;101066.41;5065594;28;20552;-76
2021/04/21 04:51:34;;;;;;;77.57;41.13;;;;;;;7.30;100.00;101057.47;5069846;28;20032;-76
2021/04/21 04:54:02;;;;;;;77.43;39.63;;;;;;;7.30;100.00;101074.34;5062495;28;20035;-76
2021/04/21 04:56:30;;;;;;;81.13;39.33;;;;;;;7.31;100.00;101070.75;5064286;28;20542;-76
2021/04/21 04:58:57;;;;;;;80.43;39.42;;;;;;;7.32;100.00;101069.81;5066190;28;20040;-76
2021/04/21 05:01:22;;;;;;;71.25;38.33;;;;;;;7.34;100.00;101074.22;5077989;28;20500;-76
2021/04/21 05:03:51;;;;;;;71.88;39.80;;;;;;;7.35;100.00;101075.94;5073653;28;20055;-75
2021/04/21 05:06:31;;;;;;;73.50;38.13;;;;;;;7.36;100.00;101080.34;5070077;28;20036;-76
2021/04/21 05:09:02;;;;;;;86.05;43.78;;;;;;;7.38;100.00;101079.34;5068209;28;20032;-75
2021/04/21 05:11:30;;;;;;;78.95;41.03;;;;;;;7.40;100.00;101084.63;5075278;28;20450;-76
2021/04/21 05:13:58;;;;;;;77.03;40.55;;;;;;;7.41;100.00;101089.00;5068750;28;20020;-76
2021/04/21 05:16:23;;;;;;;89.65;44.67;;;;;;;7.39;100.00;101085.56;5068513;28;20089;-76
2021/04/21 05:19:33;;;;;;;79.93;40.92;;;;;;;7.42;100.00;101088.06;5070246;28;20036;-76
2021/04/21 05:22:23;;;;;;;81.45;41.72;;;;;;;7.44;100.00;101094.22;5066772;28;20063;-76
2021/04/21 05:25:26;;;;;;;85.70;43.00;;;;;;;7.46;100.00;101089.69;5068313;28;20032;-76
2021/04/21 05:28:06;;;;;;;84.80;43.83;;;;;;;7.51;100.00;101093.00;5069174;28;20153;-76
2021/04/21 05:30:51;;;;;;;87.18;42.78;;;;;;;7.55;100.00;101094.59;5069940;28;20491;-76
2021/04/21 05:33:54;;;;;;;98.30;44.97;;;;;;;7.59;100.00;101098.88;5069191;28;20107;-76
2021/04/21 05:36:57;;;;;;;87.10;43.00;;;;;;;7.65;100.00;101106.63;5070110;28;20033;-75
2021/04/21 05:39:28;;;;;;;85.78;42.83;;;;;;;7.69;100.00;101103.72;5064028;28;20465;-76
2021/04/21 05:42:24;;;;;;;83.05;42.70;;;;;;;7.72;100.00;101097.34;5072355;28;20025;-75
2021/04/21 05:44:59;;;;;;;75.78;40.80;;;;;;;7.76;100.00;101098.97;5052380;28;20058;-75
2021/04/21 05:47:49;;;;;;;78.63;42.25;;;;;;;7.80;100.00;101100.53;5063149;28;20032;-76
2021/04/21 05:50:36;;;;;;;81.65;45.10;;;;;;;7.86;100.00;101105.59;5065899;28;20396;-76
2021/04/21 05:53:39;;;;;;;78.45;41.97;;;;;;;7.93;100.00;101111.53;5069518;28;20040;-75
2021/04/21 05:56:33;;;;;;;79.50;39.67;;;;;;;8.00;100.00;101113.84;5063986;28;20028;-75
2021/04/21 05:59:26;;;;;;;84.88;43.00;;;;;;;8.23;100.00;101103.84;5064120;28;20037;-75
2021/04/21 06:01:54;;;;;;;88.20;45.03;;;;;;;8.42;100.00;101116.28;5068653;28;20032;-76
2021/04/21 06:04:20;;;;;;;88.43;44.05;;;;;;;8.62;100.00;101112.63;5061366;28;20029;-75
2021/04/21 06:06:46;;;;;;;82.72;42.95;;;;;;;8.79;100.00;101109.97;5068338;28;20036;-75
2021/04/21 06:09:11;;;;;;;88.28;44.30;;;;;;;9.04;100.00;101111.38;5067930;28;20538;-76
2021/04/21 06:11:38;;;;;;;82.75;44.00;;;;;;;9.26;100.00;101110.16;5065407;28;20025;-75
2021/04/21 06:14:06;;;;;;;82.25;41.72;;;;;;;9.49;100.00;101116.16;5065227;28;20045;-75
2021/04/21 06:16:34;;;;;;;81.45;43.80;;;;;;;9.66;100.00;101114.28;5068371;28;20052;-75
2021/04/21 06:19:03;;;;;;;81.38;43.45;;;;;;;9.83;100.00;101104.44;5068476;28;20477;-76
2021/04/21 06:21:30;;;;;;;79.93;42.40;;;;;;;9.92;100.00;101114.69;5055293;28;20028;-76
2021/04/21 06:23:57;;;;;;;84.75;45.38;;;;;;;10.00;100.00;101115.09;5065718;28;20384;-75
2021/04/21 06:26:28;;;;;;;83.47;44.30;;;;;;;10.03;100.00;101120.31;5060658;28;20029;-75
2021/04/21 06:29:01;;;;;;;86.63;42.90;;;;;;;10.08;100.00;101115.53;5065220;28;20603;-75
2021/04/21 06:31:35;;;;;;;82.25;42.92;;;;;;;10.10;100.00;101125.25;5065505;28;20035;-75
2021/04/21 06:34:01;;;;;;;79.55;42.33;;;;;;;10.21;99.77;101132.72;5062804;28;20056;-75
2021/04/21 06:36:33;;;;;;;84.38;42.20;;;;;;;10.22;99.32;101131.78;5066351;28;20064;-76
2021/04/21 06:38:58;;;;;;;79.50;42.38;;;;;;;10.37;99.03;101133.56;5065810;28;20105;-76
2021/04/21 06:41:25;;;;;;;76.20;41.88;;;;;;;10.47;97.28;101133.94;5066404;28;20107;-75
2021/04/21 06:43:51;;;;;;;80.05;42.28;;;;;;;10.52;97.82;101132.72;5062656;28;20072;-76
2021/04/21 06:46:20;;;;;;;83.18;42.33;;;;;;;10.52;97.35;101132.72;5069541;28;20052;-76
2021/04/21 06:48:51;;;;;;;76.47;42.20;;;;;;;10.49;97.92;101132.03;5067336;28;20043;-75
2021/04/21 06:51:18;;;;;;;80.10;42.20;;;;;;;10.54;98.00;101141.56;5068258;28;20024;-75
2021/04/21 06:53:45;;;;;;;80.95;43.28;;;;;;;10.63;97.89;101139.28;5047591;28;20032;-75
2021/04/21 06:56:11;;;;;;;78.07;43.67;;;;;;;10.72;97.82;101136.06;5060994;28;20136;-76
2021/04/21 06:58:39;;;;;;;77.72;42.40;;;;;;;10.76;96.68;101140.28;5064101;28;20424;-76
2021/04/21 07:01:13;;;;;;;78.28;42.85;;;;;;;10.92;96.24;101141.16;5064773;28;20109;-76
2021/04/21 07:03:39;;;;;;;81.10;42.08;;;;;;;11.15;94.28;101140.63;5064041;28;20497;-76
2021/04/21 07:06:05;;;;;;;76.95;41.75;;;;;;;11.23;93.36;101146.38;5068358;28;20432;-78
2021/04/21 07:08:37;;;;;;;72.40;39.50;;;;;;;11.31;92.69;101145.94;5068945;28;20051;-76
2021/04/21 07:11:04;;;;;;;68.55;40.95;;;;;;;11.58;92.20;101151.47;5063529;28;20110;-77
2021/04/21 07:13:35;;;;;;;75.57;39.83;;;;;;;12.09;89.39;101142.84;5068245;28;20035;-77
2021/04/21 07:16:08;;;;;;;71.65;39.85;;;;;;;12.51;86.66;101149.09;5061629;28;20033;-77
2021/04/21 07:18:37;;;;;;;;;;;;;;;13.13;82.35;101152.16;5062757;28;20040;-77
2021/04/21 07:21:05;;;;;;;66.57;36.53;;;;;;;13.64;79.84;101155.81;5068964;28;20443;-77
2021/04/21 07:23:32;;;;;;;60.60;34.95;;;;;;;14.01;76.90;101154.88;5060862;28;20029;-76
2021/04/21 07:25:58;;;;;;;64.97;34.08;;;;;;;14.47;74.59;101165.97;5061725;28;20032;-77
2021/04/21 07:28:25;;;;;;;60.28;34.83;;;;;;;14.78;70.86;101163.69;5069610;28;20029;-77
2021/04/21 07:30:52;;;;;;;57.28;32.35;;;;;;;14.89;70.02;101178.13;5066916;28;20436;-77
2021/04/21 07:33:38;;;;;;;59.22;32.72;;;;;;;15.22;68.84;101163.03;5068453;28;20032;-77
2021/04/21 07:36:23;;;;;;;51.88;31.35;;;;;;;15.31;68.48;101167.72;5070452;28;20039;-77
2021/04/21 07:38:51;;;;;;;55.38;32.28;;;;;;;15.56;67.17;101172.13;5072000;28;20086;-77
2021/04/21 07:41:34;;;;;;;56.13;31.67;;;;;;;15.83;67.70;101164.56;5071730;28;20044;-76
2021/04/21 07:43:59;;;;;;;54.83;31.60;;;;;;;16.01;66.76;101171.22;5070493;28;20059;-77
2021/04/21 07:46:25;;;;;;;54.47;30.00;;;;;;;16.26;65.00;101171.94;5069792;28;20040;-77
2021/04/21 07:48:52;;;;;;;53.38;32.35;;;;;;;16.52;65.19;101182.41;5072928;28;20107;-77
2021/04/21 07:51:21;;;;;;;52.30;29.90;;;;;;;16.45;63.52;101177.59;5048469;28;20036;-76
2021/04/21 07:54:15;;;;;;;56.15;30.55;;;;;;;16.56;63.06;101180.28;5067764;28;20041;-77
2021/04/21 07:56:58;;;;;;;47.83;29.73;;;;;;;16.74;62.51;101186.94;5070172;28;20067;-77
2021/04/21 07:59:42;;;;;;;47.70;29.65;;;;;;;16.94;62.20;101183.44;5064348;28;20032;-77
2021/04/21 08:02:17;;;;;;;43.80;28.15;;;;;;;17.10;61.54;101184.84;5071060;28;20040;-77
2021/04/21 08:04:54;;;;;;;45.42;28.15;;;;;;;17.15;60.73;101190.78;5070522;28;20048;-77
2021/04/21 08:07:39;;;;;;;42.13;27.75;;;;;;;17.45;60.10;101190.88;5072546;28;20033;-77
2021/04/21 08:10:06;;;;;;;49.22;29.63;;;;;;;17.75;60.47;101193.69;5067115;28;20040;-78
2021/04/21 08:12:35;;;;;;;42.55;28.77;;;;;;;17.50;59.43;101194.06;5050309;28;20043;-78
2021/04/21 08:15:11;;;;;;;47.83;28.48;;;;;;;17.32;59.61;101196.50;5066340;28;20098;-77
2021/04/21 08:17:58;;;;;;;42.20;26.48;;;;;;;17.56;58.79;101204.38;5070341;28;20058;-77
2021/04/21 08:20:29;;;;;;;47.13;27.10;;;;;;;17.81;59.18;101196.88;5065930;28;20032;-78
2021/04/21 08:23:00;;;;;;;44.00;25.65;;;;;;;17.60;56.87;101200.44;5071950;28;20025;-77
2021/04/21 08:25:26;;;;;;;36.83;24.10;;;;;;;17.64;56.57;101207.34;5077148;28;20032;-77
2021/04/21 08:27:52;;;;;;;46.30;25.15;;;;;;;17.95;55.97;101204.69;5066479;28;20032;-77
2021/04/21 08:30:18;;;;;;;37.45;23.48;;;;;;;17.90;56.37;101212.38;5067861;28;20090;-77
2021/04/21 08:32:44;;;;;;;39.45;24.83;;;;;;;18.23;56.86;101209.41;5054343;28;20082;-77
2021/04/21 08:35:12;;;;;;;39.65;24.73;;;;;;;18.33;56.49;101199.41;5050867;28;20921;-77
2021/04/21 08:37:39;;;;;;;28.08;17.95;;;;;;;18.28;50.67;101212.56;5068309;28;20028;-77
2021/04/21 08:40:06;;;;;;;27.67;19.02;;;;;;;18.20;52.38;101212.41;5070684;28;20035;-78
2021/04/21 08:42:32;;;;;;;29.15;18.00;;;;;;;18.48;49.41;101214.38;5054262;28;20520;-77
2021/04/21 08:44:58;;;;;;;33.85;17.88;;;;;;;18.75;46.82;101221.94;5065900;28;20031;-77
2021/04/21 08:47:25;;;;;;;37.13;16.98;;;;;;;18.60;45.83;101217.88;5067764;28;20033;-77
2021/04/21 08:49:54;;;;;;;25.45;15.40;;;;;;;18.59;45.61;101222.44;5070026;28;20085;-77
2021/04/21 08:52:23;;;;;;;27.73;17.25;;;;;;;18.65;46.51;101220.19;5071456;28;20093;-77
2021/04/21 08:54:53;;;;;;;27.20;17.55;;;;;;;18.66;46.98;101224.63;5072872;28;20024;-77
2021/04/21 08:57:19;;;;;;;27.02;17.17;;;;;;;18.65;47.60;101225.63;5066839;28;20035;-78
2021/04/21 08:59:45;;;;;;;27.73;17.30;;;;;;;18.72;47.24;101222.22;5069057;28;20036;-77
2021/04/21 09:02:12;;;;;;;30.50;17.63;;;;;;;18.85;48.34;101227.41;5070243;28;20035;-77
2021/04/21 09:04:38;;;;;;;27.13;17.92;;;;;;;18.93;49.68;101233.00;5049715;28;20029;-77
2021/04/21 09:07:04;;;;;;;28.20;17.98;;;;;;;18.96;48.54;101230.00;5075344;28;20058;-77
2021/04/21 09:09:32;;;;;;;32.50;17.90;;;;;;;18.85;47.78;101227.41;5051849;28;20035;-77
2021/04/21 09:12:00;;;;;;;28.05;18.27;;;;;;;19.13;47.13;101237.50;5066916;28;20067;-78
2021/04/21 09:14:26;;;;;;;27.58;17.27;;;;;;;19.30;48.16;101222.31;5068900;28;20111;-78
2021/04/21 09:16:52;;;;;;;31.52;16.85;;;;;;;19.34;47.41;101240.06;5069664;28;20493;-78
2021/04/21 09:19:18;;;;;;;30.55;16.40;;;;;;;19.25;47.09;101236.34;5069402;28;20033;-78
2021/04/21 09:21:44;;;;;;;26.40;17.73;;;;;;;19.23;48.43;101238.34;5069674;28;20071;-77
2021/04/21 09:24:25;;;;;;;28.80;15.73;;;;;;;19.47;46.74;101232.53;5050427;28;20056;-78
2021/04/21 09:26:51;;;;;;;24.88;15.75;;;;;;;19.40;47.22;101229.47;5063927;28;20050;-78
2021/04/21 09:29:24;;;;;;;28.85;16.08;;;;;;;19.71;46.16;101219.31;5050154;28;20029;-77
2021/04/21 09:32:09;;;;;;;25.25;13.35;;;;;;;19.34;42.26;101240.06;5069123;28;20134;-77
2021/04/21 09:34:35;;;;;;;21.00;12.75;;;;;;;19.24;41.79;101234.63;5066262;28;20058;-77
2021/04/21 09:37:01;;;;;;;18.80;12.13;;;;;;;19.29;42.53;101237.78;5066817;28;20056;-77
2021/04/21 09:39:27;;;;;;;21.73;12.15;;;;;;;19.38;41.98;101247.81;5061880;28;20067;-78
2021/04/21 09:42:00;;;;;;;20.38;12.10;;;;;;;19.61;44.11;101242.13;5067200;28;20060;-78
2021/04/21 09:44:32;;;;;;;21.35;12.77;;;;;;;19.54;43.05;101240.97;5070981;28;20039;-78
2021/04/21 09:47:13;;;;;;;20.20;13.45;;;;;;;19.60;43.30;101249.44;5064351;28;20028;-77
2021/04/21 09:49:40;;;;;;;20.00;12.80;;;;;;;19.77;43.33;101242.38;5067523;28;20028;-78
2021/04/21 09:52:11;;;;;;;21.27;12.98;;;;;;;19.72;41.41;101241.97;5063544;28;20529;-77
2021/04/21 09:54:41;;;;;;;20.25;12.48;;;;;;;19.36;41.89;101251.69;5068209;28;20028;-78
2021/04/21 09:57:13;;;;;;;25.23;13.02;;;;;;;19.44;43.80;101235.50;5067478;28;20037;-77
2021/04/21 09:59:40;;;;;;;22.73;13.33;;;;;;;19.80;44.05;101242.13;5075430;28;20106;-77
2021/04/21 10:02:28;;;;;;;23.67;12.65;;;;;;;20.05;43.45;101238.78;5069055;28;20279;-78
2021/04/21 10:04:54;;;;;;;21.75;13.73;;;;;;;19.94;41.33;101240.78;5061272;28;20028;-77
2021/04/21 10:07:19;;;;;;;17.98;12.57;;;;;;;19.79;42.36;101235.81;5063815;28;20089;-78
2021/04/21 10:09:57;;;;;;;19.60;12.85;;;;;;;19.94;44.54;101244.38;5068544;28;20043;-78
2021/04/21 10:12:28;;;;;;;20.90;14.00;;;;;;;20.09;43.80;101231.16;5069453;28;20029;-78
2021/04/21 10:15:06;;;;;;;19.95;13.23;;;;;;;20.12;42.09;101239.88;5070740;28;20533;-77
2021/04/21 10:17:35;;;;;;;20.90;12.90;;;;;;;20.33;42.97;101230.66;5065174;28;20051;-77
2021/04/21 10:20:02;;;;;;;18.05;13.15;;;;;;;20.29;42.62;101237.41;5067996;28;20462;-78
2021/04/21 10:22:29;;;;;;;23.65;10.98;;;;;;;20.45;39.97;101238.50;5065036;28;20458;-77
2021/04/21 10:24:54;;;;;;;15.75;11.55;;;;;;;20.38;37.67;101236.53;5065644;28;20036;-78
2021/04/21 10:27:22;;;;;;;15.00;11.32;;;;;;;20.45;38.59;101234.94;5067389;28;20031;-78
2021/04/21 10:29:48;;;;;;;20.50;12.75;;;;;;;20.33;38.45;101233.41;5069494;28;20107;-78
2021/04/21 10:32:16;;;;;;;22.38;11.68;;;;;;;20.18;38.04;101236.56;5065991;28;20119;-78
2021/04/21 10:34:46;;;;;;;19.55;10.93;;;;;;;20.00;38.70;101237.47;5044548;28;20120;-78
2021/04/21 10:37:14;;;;;;;17.13;10.23;;;;;;;20.20;38.94;101240.00;5060487;28;20040;-78
2021/04/21 10:39:42;;;;;;;16.88;11.27;;;;;;;20.39;39.78;101235.53;5067480;28;20028;-78
2021/04/21 10:42:11;;;;;;;15.93;10.98;;;;;;;20.73;42.37;101225.75;5070147;28;20100;-77
2021/04/21 10:44:38;;;;;;;15.65;9.43;;;;;;;20.69;38.08;101242.56;5068553;28;20119;-77
2021/04/21 10:47:10;;;;;;;25.05;10.55;;;;;;;20.49;39.11;101233.63;5057156;28;20128;-77
2021/04/21 10:49:40;;;;;;;16.95;10.32;;;;;;;20.45;37.58;101237.66;5073128;28;20039;-78
2021/04/21 10:52:14;;;;;;;16.75;9.95;;;;;;;20.15;33.88;101242.31;5072035;28;20039;-78
2021/04/21 10:54:40;;;;;;;15.68;9.27;;;;;;;20.30;35.93;101236.41;5053793;28;20074;-78
2021/04/21 10:57:21;;;;;;;15.93;9.38;;;;;;;20.22;35.85;101242.59;5066770;28;20042;-79
2021/04/21 11:00:06;;;;;;;17.77;10.35;;;;;;;20.14;36.50;101242.47;5066436;28;20028;-79
2021/04/21 11:02:41;;;;;;;17.77;9.48;;;;;;;19.87;37.33;101237.81;5071890;28;20040;-78
2021/04/21 11:05:09;;;;;;;34.20;11.60;;;;;;;19.93;39.01;101239.09;5069906;28;20037;-77
2021/04/21 11:07:40;;;;;;;16.45;10.50;;;;;;;19.85;38.94;101237.09;5073017;28;20036;-78
2021/04/21 11:10:07;;;;;;;17.88;9.27;;;;;;;19.68;37.86;101238.69;5074176;28;20112;-78
2021/04/21 11:12:53;;;;;;;14.10;8.88;;;;;;;19.52;40.78;101238.38;5062740;28;20029;-78
2021/04/21 11:15:51;;;;;;;17.63;9.73;;;;;;;19.88;40.11;101238.63;5066806;28;20540;-77
2021/04/21 11:18:24;;;;;;;19.58;10.48;;;;;;;19.82;39.42;101234.63;5055852;28;20062;-78
2021/04/21 11:21:11;;;;;;;15.77;10.00;;;;;;;19.84;40.24;101237.22;5068046;28;20025;-78
2021/04/21 11:23:58;;;;;;;16.63;9.80;;;;;;;19.78;40.38;101238.66;5065925;28;20128;-78
2021/04/21 11:26:23;;;;;;;19.48;11.35;;;;;;;19.87;38.27;101243.25;5078381;28;20036;-79
2021/04/21 11:29:08;;;;;;;15.10;9.00;;;;;;;19.75;39.23;101244.38;5051292;28;20086;-79
2021/04/21 11:31:39;;;;;;;15.32;9.55;;;;;;;19.46;39.75;101238.97;5070538;28;20043;-79
2021/04/21 11:34:25;;;;;;;17.95;10.50;;;;;;;19.40;40.85;101229.47;5072053;28;20459;-78
2021/04/21 11:37:17;;;;;;;15.25;10.65;;;;;;;19.51;39.61;101238.53;5069600;28;20044;-78
2021/04/21 11:39:45;;;;;;;19.95;11.30;;;;;;;19.37;39.88;101246.13;5071261;28;20496;-77
2021/04/21 11:42:23;;;;;;;19.15;11.23;;;;;;;19.30;39.60;101244.97;5070256;28;20028;-79